createdAt,value
2019-02-21T00:01:45.843Z,71.50
2019-02-21T00:04:25.593Z,71.70
2019-02-21T00:07:05.767Z,71.60
2019-02-21T00:09:46.210Z,72.20
2019-02-21T00:12:26.341Z,72.10
2019-02-21T00:15:06.512Z,72.20
2019-02-21T00:17:46.519Z,72.30
2019-02-21T00:20:26.744Z,72.40
2019-02-21T00:23:06.799Z,72.00
2019-02-21T00:25:47.028Z,71.50
2019-02-21T00:28:27.450Z,71.80
2019-02-21T00:31:07.517Z,71.80
2019-02-21T00:33:47.717Z,72.00
2019-02-21T00:36:27.844Z,71.70
2019-02-21T00:39:07.961Z,71.30
2019-02-21T00:41:47.977Z,71.60
2019-02-21T00:44:28.214Z,71.50
2019-02-21T00:47:08.332Z,71.60
2019-02-21T00:49:48.501Z,70.90
2019-02-21T00:52:31.319Z,70.70
2019-02-21T00:55:10.816Z,70.60
2019-02-21T00:57:51.004Z,71.10
2019-02-21T01:00:31.043Z,71.50
2019-02-21T01:03:11.627Z,72.20
2019-02-21T01:05:51.722Z,72.80
2019-02-21T01:08:31.845Z,72.90
2019-02-21T01:11:12.582Z,73.30
2019-02-21T01:13:40.272Z,73.50
2019-02-21T01:19:20.152Z,73.50
2019-02-21T01:22:07.195Z,72.70
2019-02-21T01:24:47.643Z,72.10
2019-02-21T01:27:27.643Z,71.80
2019-02-21T01:33:06.593Z,71.00
2019-02-21T01:35:46.837Z,71.20
2019-02-21T01:38:26.636Z,71.40
2019-02-21T01:41:06.655Z,71.00
2019-02-21T01:43:46.675Z,71.00
2019-02-21T01:46:26.731Z,70.90
2019-02-21T01:49:06.578Z,71.60
2019-02-21T01:51:46.592Z,71.20
2019-02-21T01:54:26.941Z,70.20
2019-02-21T01:57:06.716Z,69.90
2019-02-21T01:59:47.096Z,70.00
2019-02-21T02:02:27.241Z,70.60
2019-02-21T02:07:51.104Z,70.70
2019-02-21T02:10:38.316Z,70.00
2019-02-21T02:13:24.705Z,70.00
2019-02-21T02:16:00.981Z,70.80
2019-02-21T02:18:41.163Z,71.50
2019-02-21T02:21:21.144Z,72.40
2019-02-21T02:24:01.229Z,73.20
2019-02-21T02:26:41.420Z,73.90
2019-02-21T02:29:21.343Z,74.70
2019-02-21T02:32:01.451Z,74.60
2019-02-21T02:34:41.713Z,73.90
2019-02-21T02:37:21.830Z,73.70
2019-02-21T02:40:01.944Z,73.70
2019-02-21T02:42:42.253Z,73.80
2019-02-21T02:45:22.318Z,74.40
2019-02-21T02:48:02.344Z,73.60
2019-02-21T02:50:42.693Z,73.80
2019-02-21T02:53:22.446Z,73.90
2019-02-21T02:56:02.510Z,74.30
2019-02-21T02:58:45.314Z,74.40
2019-02-21T03:01:34.295Z,74.90
2019-02-21T03:04:06.713Z,75.20
2019-02-21T03:06:46.549Z,75.50
2019-02-21T03:09:26.469Z,75.50
2019-02-21T03:12:06.558Z,75.50
2019-02-21T03:14:34.381Z,75.90
2019-02-21T03:17:21.412Z,75.80
2019-02-21T03:20:01.024Z,75.40
2019-02-21T03:22:41.108Z,75.70
2019-02-21T03:25:21.062Z,75.80
2019-02-21T03:28:01.142Z,75.70
2019-02-21T03:30:41.286Z,75.80
2019-02-21T03:33:21.368Z,75.60
2019-02-21T03:36:01.559Z,76.20
2019-02-21T03:38:42.090Z,76.40
2019-02-21T03:41:21.901Z,76.70
2019-02-21T03:44:02.343Z,76.80
2019-02-21T03:46:42.508Z,76.70
2019-02-21T03:49:22.575Z,77.10
2019-02-21T03:52:03.064Z,76.80
2019-02-21T03:54:42.861Z,76.90
2019-02-21T03:57:23.036Z,77.00
2019-02-21T04:00:03.125Z,77.10
2019-02-21T04:02:43.260Z,77.20
2019-02-21T04:05:23.254Z,77.20
2019-02-21T04:08:03.295Z,77.10
2019-02-21T04:10:43.342Z,77.20
2019-02-21T04:13:23.489Z,77.50
2019-02-21T04:16:03.831Z,77.20
2019-02-21T04:18:43.882Z,77.50
2019-02-21T04:21:23.921Z,77.20
2019-02-21T04:24:04.021Z,77.20
2019-02-21T04:26:44.550Z,77.30
2019-02-21T04:29:24.753Z,76.70
2019-02-21T04:32:16.142Z,77.00
2019-02-21T04:34:47.020Z,77.10
2019-02-21T04:37:27.112Z,76.20
2019-02-21T04:40:07.185Z,77.30
2019-02-21T04:42:47.293Z,77.20
2019-02-21T04:45:27.259Z,77.40
2019-02-21T04:48:08.738Z,77.60
2019-02-21T04:50:48.637Z,77.70
2019-02-21T04:53:28.906Z,78.20
2019-02-21T04:59:21.396Z,78.20
2019-02-21T05:02:01.438Z,78.60
2019-02-21T05:04:41.716Z,78.90
2019-02-21T05:07:21.920Z,79.10
2019-02-21T05:10:02.092Z,79.20
2019-02-21T05:12:42.425Z,79.60
2019-02-21T05:15:22.244Z,79.90
2019-02-21T05:18:02.537Z,79.80
2019-02-21T05:20:42.544Z,80.20
2019-02-21T05:23:22.720Z,80.20
2019-02-21T05:26:02.646Z,80.30
2019-02-21T05:28:42.744Z,79.80
2019-02-21T05:31:48.136Z,79.80
2019-02-21T05:34:35.266Z,79.70
2019-02-21T05:37:22.436Z,79.50
2019-02-21T05:40:28.905Z,79.80
2019-02-21T05:43:31.016Z,80.20
2019-02-21T05:46:32.380Z,80.20
2019-02-21T05:49:06.204Z,80.40
2019-02-21T05:51:50.767Z,80.80
2019-02-21T05:54:49.778Z,80.50
2019-02-21T05:57:49.350Z,80.50
2019-02-21T06:03:51.409Z,80.50
2019-02-21T06:09:50.069Z,79.40
2019-02-21T06:12:49.232Z,79.70
2019-02-21T06:15:37.304Z,79.80
2019-02-21T06:18:36.286Z,80.20
2019-02-21T06:24:36.586Z,80.70
2019-02-21T06:27:23.552Z,80.70
2019-02-21T06:30:26.228Z,80.70
2019-02-21T06:33:06.076Z,80.80
2019-02-21T06:35:45.963Z,81.10
2019-02-21T06:38:26.308Z,81.30
2019-02-21T06:41:07.630Z,81.40
2019-02-21T06:43:47.782Z,81.40
2019-02-21T06:46:28.169Z,81.20
2019-02-21T06:49:07.945Z,80.90
2019-02-21T06:51:47.956Z,80.90
2019-02-21T06:54:28.269Z,80.60
2019-02-21T06:57:08.057Z,80.30
2019-02-21T06:59:48.169Z,80.50
2019-02-21T07:02:28.338Z,80.40
2019-02-21T07:05:08.624Z,80.30
2019-02-21T07:07:36.232Z,79.80
2019-02-21T07:13:26.442Z,79.40
2019-02-21T07:16:01.733Z,79.20
2019-02-21T07:18:42.069Z,78.80
2019-02-21T07:21:22.041Z,78.30
2019-02-21T07:24:02.226Z,78.20
2019-02-21T07:26:42.885Z,77.60
2019-02-21T07:29:22.638Z,77.40
2019-02-21T07:32:02.988Z,76.50
2019-02-21T07:37:42.434Z,73.60
2019-02-21T07:40:22.056Z,73.50
2019-02-21T07:43:02.041Z,73.80
2019-02-21T07:45:42.562Z,72.00
2019-02-21T07:48:22.436Z,69.30
2019-02-21T07:51:02.785Z,68.80
2019-02-21T07:53:43.069Z,67.10
2019-02-21T07:56:23.413Z,61.80
2019-02-21T07:59:03.418Z,61.60
2019-02-21T08:01:43.559Z,59.70
2019-02-21T08:04:23.652Z,58.00
2019-02-21T08:07:03.771Z,58.10
2019-02-21T08:09:44.059Z,57.30
2019-02-21T08:12:24.163Z,56.70
2019-02-21T08:15:04.235Z,56.40
2019-02-21T08:17:31.845Z,55.00
2019-02-21T08:20:18.904Z,51.90
2019-02-21T08:22:59.093Z,51.40
2019-02-21T08:25:39.364Z,52.10
2019-02-21T08:28:19.555Z,50.20
2019-02-21T08:31:00.645Z,49.00
2019-02-21T08:34:04.273Z,47.80
2019-02-21T08:36:45.460Z,47.00
2019-02-21T08:39:26.379Z,46.00
2019-02-21T08:42:07.538Z,45.20
2019-02-21T08:44:47.711Z,45.40
2019-02-21T08:47:27.966Z,45.80
2019-02-21T08:50:07.824Z,46.00
2019-02-21T08:52:48.034Z,46.00
2019-02-21T08:55:28.163Z,44.60
2019-02-21T08:58:08.146Z,44.40
2019-02-21T09:00:48.145Z,42.60
2019-02-21T09:03:28.391Z,42.10
2019-02-21T09:06:08.612Z,42.20
2019-02-21T09:08:48.876Z,40.90
2019-02-21T09:11:29.176Z,40.80
2019-02-21T09:13:57.668Z,39.10
2019-02-21T09:16:44.731Z,37.90
2019-02-21T09:19:31.742Z,37.80
2019-02-21T09:22:18.756Z,37.80
2019-02-21T09:24:59.205Z,35.80
2019-02-21T09:27:39.930Z,33.60
2019-02-21T09:30:19.806Z,30.70
2019-02-21T09:32:59.814Z,30.80
2019-02-21T09:35:39.907Z,32.20
2019-02-21T09:38:20.349Z,32.00
2019-02-21T09:41:00.513Z,31.20
2019-02-21T09:43:40.481Z,31.30
2019-02-21T09:46:22.071Z,31.40
2019-02-21T09:49:03.052Z,31.80
2019-02-21T09:51:42.921Z,31.40
2019-02-21T09:54:22.942Z,30.80
2019-02-21T10:00:14.720Z,31.30
2019-02-21T10:02:56.716Z,30.80
2019-02-21T10:05:36.545Z,30.00
2019-02-21T10:08:16.661Z,30.40
2019-02-21T10:10:56.642Z,29.90
2019-02-21T10:13:36.822Z,29.30
2019-02-21T10:16:16.759Z,29.30
2019-02-21T10:18:56.623Z,29.40
2019-02-21T10:21:36.833Z,29.70
2019-02-21T10:24:16.967Z,29.40
2019-02-21T10:26:57.192Z,29.00
2019-02-21T10:29:37.364Z,30.10
2019-02-21T10:32:17.605Z,30.00
2019-02-21T10:34:57.641Z,30.70
2019-02-21T10:37:37.864Z,30.40
2019-02-21T10:40:17.995Z,31.40
2019-02-21T10:42:58.176Z,29.60
2019-02-21T10:45:47.442Z,29.30
2019-02-21T10:48:20.186Z,31.40
2019-02-21T10:51:00.409Z,32.60
2019-02-21T10:53:40.397Z,32.50
2019-02-21T10:56:20.377Z,31.30
2019-02-21T10:59:00.287Z,31.10
2019-02-21T11:01:40.452Z,30.10
2019-02-21T11:04:20.542Z,29.90
2019-02-21T11:06:48.211Z,29.70
2019-02-21T11:09:35.236Z,29.90
2019-02-21T11:12:22.270Z,29.30
2019-02-21T11:15:02.558Z,28.90
2019-02-21T11:17:42.515Z,28.30
2019-02-21T11:20:22.434Z,28.60
2019-02-21T11:23:02.496Z,28.40
2019-02-21T11:25:42.444Z,28.10
2019-02-21T11:28:22.314Z,28.30
2019-02-21T11:30:49.943Z,28.10
2019-02-21T11:33:36.970Z,27.50
2019-02-21T11:36:24.383Z,27.50
2019-02-21T11:39:04.585Z,26.90
2019-02-21T11:41:42.803Z,25.90
2019-02-21T11:44:22.389Z,25.40
2019-02-21T11:47:02.480Z,25.70
2019-02-21T11:49:42.946Z,25.90
2019-02-21T11:52:22.757Z,25.50
2019-02-21T11:55:02.774Z,25.30
2019-02-21T11:57:31.248Z,25.10
2019-02-21T11:59:58.828Z,25.40
2019-02-21T12:02:26.500Z,24.70
2019-02-21T12:04:54.116Z,24.40
2019-02-21T12:07:21.749Z,24.00
2019-02-21T12:09:49.360Z,24.40
2019-02-21T12:12:17.096Z,24.60
2019-02-21T12:14:45.507Z,24.50
2019-02-21T12:17:13.131Z,24.50
2019-02-21T12:19:40.700Z,24.60
2019-02-21T12:22:08.291Z,24.40
2019-02-21T12:24:35.916Z,24.10
2019-02-21T12:27:03.597Z,23.70
2019-02-21T12:29:31.225Z,23.60
2019-02-21T12:32:18.213Z,23.50
2019-02-21T12:34:57.985Z,23.00
2019-02-21T12:37:37.770Z,23.10
2019-02-21T12:40:18.164Z,23.20
2019-02-21T12:42:58.144Z,23.00
2019-02-21T12:45:38.064Z,22.90
2019-02-21T12:48:18.180Z,22.90
2019-02-21T12:50:58.230Z,22.70
2019-02-21T12:53:38.709Z,22.50
2019-02-21T12:56:18.702Z,22.30
2019-02-21T12:58:58.577Z,22.20
2019-02-21T13:01:38.633Z,22.30
2019-02-21T13:04:19.047Z,22.20
2019-02-21T13:06:58.929Z,21.90
2019-02-21T13:09:39.007Z,21.90
2019-02-21T13:12:18.834Z,22.40
2019-02-21T13:14:58.944Z,21.90
2019-02-21T13:17:39.068Z,21.50
2019-02-21T13:20:19.291Z,21.80
2019-02-21T13:22:59.312Z,22.00
2019-02-21T13:25:26.988Z,21.70
2019-02-21T13:28:14.036Z,21.70
2019-02-21T13:31:01.047Z,21.40
2019-02-21T13:33:41.026Z,21.10
2019-02-21T13:36:20.800Z,21.20
2019-02-21T13:39:01.345Z,21.00
2019-02-21T13:41:41.087Z,20.70
2019-02-21T13:44:21.253Z,20.50
2019-02-21T13:46:48.905Z,20.30
2019-02-21T13:49:36.278Z,20.20
2019-02-21T13:52:23.360Z,19.70
2019-02-21T13:55:03.284Z,19.30
2019-02-21T13:57:43.823Z,19.60
2019-02-21T14:00:23.637Z,19.80
2019-02-21T14:03:04.703Z,19.30
2019-02-21T14:05:45.014Z,19.50
2019-02-21T14:08:25.357Z,19.60
2019-02-21T14:11:06.072Z,19.50
2019-02-21T14:13:46.095Z,19.00
2019-02-21T14:16:15.561Z,19.30
2019-02-21T14:19:02.576Z,19.30
2019-02-21T14:21:49.672Z,18.90
2019-02-21T14:24:17.532Z,18.50
2019-02-21T14:27:04.569Z,18.50
2019-02-21T14:29:51.577Z,18.40
2019-02-21T14:32:19.276Z,18.20
2019-02-21T14:35:06.865Z,18.10
2019-02-21T14:37:47.293Z,18.10
2019-02-21T14:40:27.137Z,18.00
2019-02-21T14:43:07.392Z,18.10
2019-02-21T14:45:47.354Z,17.60
2019-02-21T14:48:27.705Z,17.30
2019-02-21T14:51:07.412Z,18.20
2019-02-21T14:53:47.758Z,18.10
2019-02-21T14:56:27.826Z,18.20
2019-02-21T14:59:07.901Z,18.30
2019-02-21T15:01:48.091Z,18.60
2019-02-21T15:04:28.188Z,18.80
2019-02-21T15:07:09.001Z,18.80
2019-02-21T15:09:49.172Z,18.40
2019-02-21T15:12:29.554Z,18.80
2019-02-21T15:15:09.709Z,18.50
2019-02-21T15:17:49.840Z,19.10
2019-02-21T15:20:36.978Z,19.00
2019-02-21T15:23:01.634Z,19.30
2019-02-21T15:25:48.688Z,19.60
2019-02-21T15:28:35.718Z,19.60
2019-02-21T15:31:16.268Z,19.50
2019-02-21T15:33:56.356Z,19.60
2019-02-21T15:36:38.556Z,19.50
2019-02-21T15:39:18.795Z,19.50
2019-02-21T15:41:58.790Z,19.90
2019-02-21T15:44:39.035Z,20.10
2019-02-21T15:47:19.180Z,20.80
2019-02-21T15:49:59.435Z,22.20
2019-02-21T15:52:39.636Z,23.10
2019-02-21T15:55:19.877Z,23.60
2019-02-21T15:58:03.880Z,24.10
2019-02-21T16:00:42.337Z,24.90
2019-02-21T16:03:22.184Z,24.30
2019-02-21T16:09:15.416Z,24.70
2019-02-21T16:11:46.093Z,24.30
2019-02-21T16:14:26.581Z,23.60
2019-02-21T16:17:06.131Z,24.20
2019-02-21T16:19:46.129Z,24.50
2019-02-21T16:22:26.341Z,25.10
2019-02-21T16:25:06.455Z,26.10
2019-02-21T16:27:46.513Z,27.00
2019-02-21T16:30:27.126Z,28.00
2019-02-21T16:33:06.846Z,28.70
2019-02-21T16:35:47.353Z,29.50
2019-02-21T16:38:27.140Z,31.10
2019-02-21T16:44:07.124Z,33.20
2019-02-21T16:46:47.181Z,34.10
2019-02-21T16:49:27.628Z,35.50
2019-02-21T16:52:07.853Z,36.40
2019-02-21T16:54:47.753Z,37.00
2019-02-21T16:57:27.804Z,37.70
2019-02-21T17:00:07.675Z,38.30
2019-02-21T17:02:47.850Z,38.70
2019-02-21T17:05:28.430Z,39.40
2019-02-21T17:08:09.784Z,40.50
2019-02-21T17:10:50.210Z,41.00
2019-02-21T17:13:30.154Z,41.90
2019-02-21T17:16:10.170Z,42.70
2019-02-21T17:18:50.427Z,42.80
2019-02-21T17:21:30.930Z,43.60
2019-02-21T17:24:10.813Z,43.80
2019-02-21T17:26:50.808Z,45.00
2019-02-21T17:29:28.956Z,44.90
2019-02-21T17:32:09.483Z,45.50
2019-02-21T17:34:49.704Z,46.10
2019-02-21T17:37:29.657Z,46.50
2019-02-21T17:40:09.845Z,47.10
2019-02-21T17:42:49.879Z,47.40
2019-02-21T17:45:30.421Z,47.60
2019-02-21T17:47:58.233Z,47.80
2019-02-21T17:50:45.288Z,47.80
2019-02-21T17:53:32.358Z,48.50
2019-02-21T17:56:19.741Z,48.70
2019-02-21T17:58:59.977Z,49.00
2019-02-21T18:01:40.011Z,49.20
2019-02-21T18:04:20.161Z,49.30
2019-02-21T18:09:58.585Z,50.40
2019-02-21T18:12:38.709Z,50.40
2019-02-21T18:15:18.894Z,50.30
2019-02-21T18:17:59.189Z,50.40
2019-02-21T18:20:39.155Z,50.50
2019-02-21T18:23:19.304Z,50.80
2019-02-21T18:25:59.499Z,51.30
2019-02-21T18:28:39.493Z,51.10
2019-02-21T18:31:19.778Z,51.70
2019-02-21T18:34:00.043Z,52.10
2019-02-21T18:36:40.236Z,52.30
2019-02-21T18:39:20.306Z,52.20
2019-02-21T18:41:48.403Z,52.50
2019-02-21T18:44:35.442Z,52.70
2019-02-21T18:47:22.514Z,52.80
2019-02-21T18:50:02.158Z,52.60
2019-02-21T18:52:42.499Z,53.10
2019-02-21T18:55:22.494Z,53.10
2019-02-21T18:57:50.435Z,53.00
2019-02-21T19:00:37.478Z,52.80
2019-02-21T19:03:24.655Z,53.20
2019-02-21T19:06:02.852Z,53.20
2019-02-21T19:08:49.877Z,53.20
2019-02-21T19:11:29.568Z,53.50
2019-02-21T19:14:09.789Z,53.40
2019-02-21T19:16:50.075Z,53.60
2019-02-21T19:19:31.105Z,53.90
2019-02-21T19:22:11.403Z,54.40
2019-02-21T19:24:51.547Z,55.00
2019-02-21T19:27:37.161Z,55.00
2019-02-21T19:30:14.600Z,54.80
2019-02-21T19:32:54.965Z,55.40
2019-02-21T19:35:35.220Z,55.60
2019-02-21T19:38:15.313Z,55.60
2019-02-21T19:40:55.592Z,55.70
2019-02-21T19:43:35.983Z,56.00
2019-02-21T19:46:16.249Z,56.10
2019-02-21T19:49:03.416Z,56.20
2019-02-21T19:51:50.558Z,56.30
2019-02-21T19:54:30.896Z,56.40
2019-02-21T19:57:11.355Z,56.30
2019-02-21T19:59:52.487Z,56.50
2019-02-21T20:02:32.348Z,56.80
2019-02-21T20:05:13.774Z,56.40
2019-02-21T20:07:53.651Z,56.80
2019-02-21T20:10:33.941Z,56.90
2019-02-21T20:13:14.696Z,57.10
2019-02-21T20:15:54.959Z,57.50
2019-02-21T20:18:35.165Z,57.80
2019-02-21T20:21:15.106Z,58.10
2019-02-21T20:23:55.262Z,58.60
2019-02-21T20:26:35.307Z,58.20
2019-02-21T20:29:15.521Z,58.10
2019-02-21T20:31:55.895Z,57.90
2019-02-21T20:34:23.752Z,57.70
2019-02-21T20:37:10.879Z,57.70
2019-02-21T20:39:58.011Z,57.70
2019-02-21T20:42:40.648Z,57.90
2019-02-21T20:45:21.069Z,57.60
2019-02-21T20:48:01.340Z,58.40
2019-02-21T20:50:41.308Z,58.30
2019-02-21T20:53:21.299Z,58.00
2019-02-21T20:56:01.505Z,58.00
2019-02-21T20:58:41.684Z,58.40
2019-02-21T21:04:20.161Z,58.60
2019-02-21T21:07:00.845Z,59.10
2019-02-21T21:09:29.197Z,58.80
2019-02-21T21:12:16.281Z,59.40
2019-02-21T21:15:03.321Z,58.90
2019-02-21T21:17:46.092Z,59.30
2019-02-21T21:20:26.110Z,59.10
2019-02-21T21:23:05.996Z,58.60
2019-02-21T21:25:46.101Z,58.60
2019-02-21T21:28:26.183Z,59.20
2019-02-21T21:30:53.956Z,59.40
2019-02-21T21:33:21.746Z,59.90
2019-02-21T21:38:54.197Z,59.50
2019-02-21T21:41:30.201Z,60.00
2019-02-21T21:44:10.434Z,60.00
2019-02-21T21:46:50.645Z,60.00
2019-02-21T21:49:31.084Z,61.10
2019-02-21T21:52:11.171Z,61.10
2019-02-21T21:54:51.255Z,61.60
2019-02-21T21:57:31.109Z,61.80
2019-02-21T22:00:11.071Z,62.00
2019-02-21T22:02:51.548Z,62.20
2019-02-21T22:08:32.914Z,62.20
2019-02-21T22:11:12.962Z,62.10
2019-02-21T22:13:53.199Z,62.40
2019-02-21T22:16:33.156Z,62.20
2019-02-21T22:19:13.313Z,62.50
2019-02-21T22:21:53.832Z,62.60
2019-02-21T22:24:34.446Z,62.70
2019-02-21T22:27:02.231Z,62.80
2019-02-21T22:29:49.337Z,62.90
2019-02-21T22:32:36.410Z,62.70
2019-02-21T22:35:16.509Z,63.00
2019-02-21T22:37:56.822Z,64.00
2019-02-21T22:40:36.994Z,63.10
2019-02-21T22:43:17.146Z,63.80
2019-02-21T22:45:57.233Z,63.70
2019-02-21T22:48:46.920Z,63.70
2019-02-21T22:51:19.479Z,63.70
2019-02-21T22:54:02.403Z,64.10
2019-02-21T22:59:41.192Z,62.80
2019-02-21T23:02:21.005Z,63.60
2019-02-21T23:05:01.361Z,64.00
2019-02-21T23:07:41.397Z,64.10
2019-02-21T23:10:21.283Z,63.90
2019-02-21T23:13:01.568Z,64.20
2019-02-21T23:15:41.899Z,64.40
2019-02-21T23:18:21.556Z,64.10
2019-02-21T23:21:01.649Z,63.90
2019-02-21T23:23:41.769Z,63.90
2019-02-21T23:26:22.260Z,64.30
2019-02-21T23:29:02.153Z,63.80
2019-02-21T23:31:42.457Z,63.80
2019-02-21T23:37:19.579Z,64.60
2019-02-21T23:39:59.745Z,63.90
2019-02-21T23:42:40.208Z,64.30
2019-02-21T23:45:20.191Z,64.50
2019-02-21T23:48:00.252Z,64.30
2019-02-21T23:50:27.975Z,64.50
2019-02-21T23:53:15.299Z,64.50
2019-02-21T23:56:02.374Z,65.30
2019-02-21T23:58:42.732Z,64.70
